createdAt,value
2023-01-25T00:09:22.147Z,38.30
2023-01-25T00:19:25.699Z,37.20
2023-01-25T00:29:29.258Z,37.30
2023-01-25T00:39:32.918Z,36.50
2023-01-25T00:49:39.067Z,41.00
2023-01-25T00:59:44.858Z,38.80
2023-01-25T01:09:50.907Z,34.80
2023-01-25T01:19:54.556Z,31.30
2023-01-25T01:29:58.033Z,31.40
2023-01-25T01:40:01.551Z,32.70
2023-01-25T01:50:19.658Z,29.80
2023-01-25T02:00:30.218Z,28.60
2023-01-25T02:10:36.344Z,28.40
2023-01-25T02:20:45.485Z,32.20
2023-01-25T02:30:51.042Z,31.10
2023-01-25T02:41:12.001Z,27.80
2023-01-25T02:51:16.304Z,28.70
2023-01-25T03:01:22.078Z,30.70
2023-01-25T03:11:25.745Z,30.60
2023-01-25T03:21:29.726Z,31.20
2023-01-25T03:31:33.814Z,34.90
2023-01-25T03:41:40.226Z,30.20
2023-01-25T03:51:47.983Z,31.50
2023-01-25T04:01:54.562Z,33.90
2023-01-25T04:12:00.019Z,32.80
2023-01-25T04:22:04.225Z,35.20
2023-01-25T04:32:15.117Z,34.50
2023-01-25T04:42:21.166Z,34.50
2023-01-25T04:52:28.123Z,41.20
2023-01-25T05:02:33.689Z,37.80
2023-01-25T05:12:37.679Z,38.50
2023-01-25T05:22:43.047Z,37.40
2023-01-25T05:32:48.063Z,31.70
2023-01-25T05:43:01.525Z,35.10
2023-01-25T05:53:07.982Z,33.80
2023-01-25T06:03:11.818Z,31.70
2023-01-25T06:13:17.455Z,32.40
2023-01-25T06:23:21.464Z,34.20
2023-01-25T06:33:25.014Z,35.20
2023-01-25T06:43:32.603Z,40.10
2023-01-25T06:53:40.963Z,43.00
2023-01-25T07:03:44.537Z,48.00
2023-01-25T07:13:50.528Z,46.70
2023-01-25T07:23:55.540Z,56.90
2023-01-25T07:33:59.116Z,65.50
2023-01-25T07:44:05.761Z,64.30
2023-01-25T07:54:14.478Z,61.70
2023-01-25T08:04:20.934Z,59.20
2023-01-25T08:14:25.150Z,57.80
2023-01-25T08:24:29.014Z,60.70
2023-01-25T08:34:32.628Z,55.00
2023-01-25T08:44:36.989Z,57.60
2023-01-25T08:54:45.646Z,62.50
2023-01-25T09:04:51.190Z,57.70
2023-01-25T09:14:55.027Z,58.90
2023-01-25T09:25:00.509Z,58.40
2023-01-25T09:35:06.514Z,61.80
2023-01-25T09:45:22.554Z,54.40
2023-01-25T09:55:30.326Z,57.80
2023-01-25T10:05:46.815Z,58.30
2023-01-25T10:15:55.972Z,54.00
2023-01-25T10:26:01.515Z,55.70
2023-01-25T10:36:06.036Z,55.90
2023-01-25T10:46:25.223Z,57.30
2023-01-25T10:56:30.002Z,56.30
2023-01-25T11:06:37.787Z,56.50
2023-01-25T11:16:48.837Z,56.30
2023-01-25T11:27:12.549Z,56.60
2023-01-25T11:37:22.144Z,56.30
2023-01-25T11:47:45.526Z,55.70
2023-01-25T11:58:18.906Z,54.00
2023-01-25T12:08:37.934Z,54.30
2023-01-25T12:18:50.379Z,52.30
2023-01-25T12:28:57.083Z,53.70
2023-01-25T12:39:07.729Z,55.40
2023-01-25T12:49:31.817Z,51.70
2023-01-25T13:00:11.398Z,52.80
2023-01-25T13:10:30.933Z,47.50
2023-01-25T13:20:43.870Z,51.10
2023-01-25T13:30:54.307Z,55.80
2023-01-25T13:41:15.763Z,55.60
2023-01-25T13:51:20.359Z,53.40
2023-01-25T14:01:24.309Z,57.50
2023-01-25T14:11:33.600Z,57.90
2023-01-25T14:21:39.953Z,54.00
2023-01-25T14:31:49.379Z,52.80
2023-01-25T14:42:01.511Z,49.30
2023-01-25T14:52:16.466Z,52.90
2023-01-25T15:02:23.119Z,52.00
2023-01-25T15:12:34.175Z,51.30
2023-01-25T15:22:39.783Z,57.00
2023-01-25T15:32:45.202Z,52.20
2023-01-25T15:42:48.733Z,56.70
2023-01-25T15:52:55.108Z,59.00
2023-01-25T16:02:58.759Z,69.90
2023-01-25T16:13:02.738Z,62.70
2023-01-25T16:23:06.356Z,65.20
2023-01-25T16:33:12.117Z,63.30
2023-01-25T16:43:15.820Z,71.30
2023-01-25T16:53:20.979Z,64.50
2023-01-25T17:03:24.644Z,67.60
2023-01-25T17:13:28.413Z,68.70
2023-01-25T17:23:38.199Z,73.80
2023-01-25T17:33:42.325Z,62.30
2023-01-25T17:43:52.399Z,70.10
2023-01-25T17:53:56.125Z,67.80
2023-01-25T18:04:02.468Z,65.00
2023-01-25T18:14:08.378Z,65.70
2023-01-25T18:24:37.899Z,60.10
2023-01-25T18:34:41.844Z,63.00
2023-01-25T18:44:49.008Z,59.80
2023-01-25T18:54:53.607Z,57.50
2023-01-25T19:04:57.365Z,58.20
2023-01-25T19:41:31.544Z,68.00
2023-01-25T19:53:56.963Z,70.70
2023-01-25T20:04:20.953Z,63.60
2023-01-25T20:14:27.896Z,68.30
2023-01-25T20:24:36.962Z,71.00
2023-01-25T20:34:43.275Z,66.80
2023-01-25T20:44:47.244Z,70.70
2023-01-25T20:55:17.181Z,67.80
2023-01-25T21:05:21.129Z,71.90
2023-01-25T21:15:25.752Z,67.00
2023-01-25T21:25:29.577Z,77.00
2023-01-25T21:35:33.840Z,71.80
2023-01-25T21:45:59.423Z,66.30
2023-01-25T21:56:05.718Z,64.20
2023-01-25T22:06:09.446Z,56.70
2023-01-25T22:16:13.664Z,59.40
2023-01-25T22:26:20.820Z,59.10
2023-01-25T22:36:28.104Z,61.30
2023-01-25T22:46:32.008Z,63.10
2023-01-25T22:56:35.733Z,60.60
2023-01-25T23:06:39.394Z,61.50
2023-01-25T23:16:43.954Z,59.60
2023-01-25T23:26:47.567Z,60.00
2023-01-25T23:36:51.366Z,60.50
2023-01-25T23:46:55.973Z,63.80
2023-01-25T23:57:10.094Z,67.00
